Ocean Grove, New Jersey
Current Conditions -  °F | °C
As of 8:15 AM on Thursday 27 Nov 2014 (Local Time) from KBLM Reporting Station
Overcast Overcast  
Wind Chill: 31°   Ceiling: 4600
Heat Index: 36°   Visibility: 10mi
Dew Point: 28°   Wind: 6mph
Humidity: 75%   Direction: 280°W
Pressure: 29.99"   Gusts: NA
Location:  40.21°N, 74.01°W
Report Text: KBLM 271315Z AUTO 28005KT 10SM SCT040 BKN046 OVC065 02/M02 A2999 RMK AO1
Loading
Personal Weather Stations






























Interactive Weather Map New forecast layout! Learn more

10-Day Weather Forecast

Advertisements
Track Severe Weather on mobile